Nearby METAR Reports

 

KSGR - Houston/Sugar La, Texas, USA
Distance from station: ESE 7mi, 12km
Updated: Fri, 07-Oct-2022 1:53pm CDT
Clear
Clear
 Wind from NNW
Wind: NNW 5 mph , 7 km/h
Temperature: 86°F , 30°C
Dew Point: 57°F , 14°C
Humidity: 38%
Barometer: 30.17 inHg , 1021.7 hPa
Clouds: Clear
Visibility: 10 miles , 16 km
2022/10/07 18:53 KSGR 071853Z 33004KT 10SM CLR 30/14 A3017 RMK AO2 SLP217 T03000144
KTME - Houston Exec, Texas, USA
Distance from station: NW 14mi, 22km
Updated: Fri, 07-Oct-2022 2:15pm CDT
Clear
Clear
 Wind from NNW
Wind: NNW 8 mph , 13 km/h
Temperature: 84°F , 29°C
Heat Index: 84°F , 29°C
Dew Point: 61°F , 16°C
Humidity: 45%
Barometer: 30.18 inHg , 1022 hPa
Clouds: Clear
2022/10/07 19:15 KTME 071915Z AUTO 33007KT CLR 29/16 A3018 RMK AO2
 
KAXH - Houston/Southwst, Texas, USA
Distance from station: ESE 19mi, 31km
Updated: Thu, 18-Aug-2022 5:15pm CDT
NOT Current
Thunderstorm rain, Overcast
Thunderstorm rain, Overcast
 Wind from ESE
Wind: ESE 13 mph , 20 km/h, Gust: 21 mph , 33 km/h
Temperature: 81°F , 27°C
Heat Index: 86°F , 30°C
Dew Point: 73°F , 23°C
Humidity: 79%
Barometer: 29.89 inHg , 1012.2 hPa
Summary: Thunderstorm Rain
Clouds: Overcast
Visibility: 10 miles , 16 km
Cloud details: Mostly cloudy 4100 ft
Overcast 4800 ft
2022/08/18 22:15 KAXH 182215Z AUTO 12011G18KT 10SM TSRA BKN041 OVC048 27/23 A2989 RMK AO2 LTG DSNT ALQS T02730232
KMCJ - Houston/Univ, Texas, USA
Distance from station: ENE 23mi, 37km
Updated: Fri, 07-Oct-2022 2:35pm CDT
Clear
Clear
 Wind from N
Wind: N 0 mph , 0 km/h, Gust: 13 mph , 20 km/h
Temperature: 84°F , 29°C
Dew Point: 54°F , 12°C
Humidity: 35%
Barometer: 30.14 inHg , 1020.7 hPa
Clouds: Clear
Visibility: 10 miles , 16 km
2022/10/07 19:35 KMCJ 071935Z AUTO 00000G11KT 10SM CLR 29/12 A3014 RMK A01
 
KHOU - Houston/Hobby, Texas, USA
Distance from station: E 29mi, 47km
Updated: Fri, 07-Oct-2022 1:53pm CDT
Mostly cloudy
Mostly cloudy
 Wind from NW
Wind: NW 7 mph , 11 km/h
Temperature: 90°F , 32°C
Dew Point: 55°F , 13°C
Humidity: 31%
Barometer: 30.16 inHg , 1021.3 hPa
Clouds: Mostly cloudy
Visibility: 10 miles , 16 km
Cloud details: Mostly cloudy 20000 ft
2022/10/07 18:53 KHOU 071853Z 31006KT 10SM BKN200 32/13 A3016 RMK AO2 SLP217 T03170128
KDWH - Houston/Dw Hooks, Texas, USA
Distance from station: NNE 32mi, 52km
Updated: Fri, 07-Oct-2022 1:53pm CDT
Clear
Clear
 Wind from calm
Wind: Calm
Temperature: 84°F , 29°C
Heat Index: 84°F , 29°C
Dew Point: 59°F , 15°C
Humidity: 43%
Barometer: 30.17 inHg , 1021.7 hPa
Clouds: Clear
Visibility: 10 miles , 16 km
2022/10/07 18:53 KDWH 071853Z 00000KT 10SM CLR 29/15 A3017 RMK AO2 SLP214 T02940150
 
KLVJ - Houston, Texas, USA
Distance from station: ESE 32mi, 52km
Updated: Fri, 07-Oct-2022 1:53pm CDT
Clear
Clear
 Wind from varies
Wind: varies 5 mph , 7 km/h
Temperature: 88°F , 31°C
Dew Point: 57°F , 14°C
Humidity: 35%
Barometer: 30.18 inHg , 1022 hPa
Clouds: Clear
Visibility: 10 miles , 16 km
2022/10/07 18:53 KLVJ 071853Z AUTO VRB04KT 10SM CLR 31/14 A3018 RMK AO2 SLP217 T03060139
KELA - Eagle Lake, Texas, USA
Distance from station: W 33mi, 53km
Updated: Fri, 07-Oct-2022 2:15pm CDT
Partly cloudy
Partly cloudy
 Wind from N
Wind: N 5 mph , 7 km/h
Temperature: 82°F , 28°C
Heat Index: 82°F , 28°C
Dew Point: 59°F , 15°C
Humidity: 45%
Barometer: 30.17 inHg , 1021.7 hPa
Clouds: Partly cloudy
Visibility: 10 miles , 16 km
Cloud details: Partly cloudy 12000 ft
2022/10/07 19:15 KELA 071915Z AUTO 35004KT 10SM SCT120 28/15 A3017 RMK AO2 T02800154
 
KIAH - Houston/Intnl, Texas, USA
Distance from station: NE 35mi, 56km
Updated: Fri, 07-Oct-2022 1:53pm CDT
Mostly cloudy
Mostly cloudy
 Wind from NNW
Wind: NNW 6 mph , 9 km/h
Temperature: 84°F , 29°C
Heat Index: 83°F , 28°C
Dew Point: 57°F , 14°C
Humidity: 40%
Barometer: 30.16 inHg , 1021.3 hPa
Clouds: Mostly cloudy
Visibility: 10 miles , 16 km
Cloud details: Partly cloudy 20000 ft
Mostly cloudy 25000 ft
2022/10/07 18:53 KIAH 071853Z 34005KT 10SM SCT200 BKN250 29/14 A3016 RMK AO2 SLP214 T02940144
KARM - Wharton, Texas, USA
Distance from station: SW 35mi, 57km
Updated: Fri, 07-Oct-2022 2:15pm CDT
Clear
Clear
 Wind from NW
Wind: NW 6 mph , 9 km/h
Temperature: 86°F , 30°C
Dew Point: 54°F , 12°C
Humidity: 33%
Barometer: 30.17 inHg , 1021.7 hPa
Clouds: Clear
Visibility: 10 miles , 16 km
2022/10/07 19:15 KARM 071915Z AUTO 31005KT 10SM CLR 30/12 A3017 RMK AO2 T02960119 TSNO
 
KEFD - Houston/Ellingto, Texas, USA
Distance from station: E 36mi, 59km
Updated: Thu, 06-Oct-2022 6:54pm CDT
NOT Current
Few Clouds
Few Clouds
 Wind from ESE
Wind: ESE 7 mph , 11 km/h
Temperature: 82°F , 28°C
Dew Point: 52°F , 11°C
Humidity: 35%
Barometer: 30.07 inHg , 1018.3 hPa
Clouds: Few Clouds
Visibility: 10 miles , 16 km
Cloud details: Few Clouds 7000 ft
2022/10/06 23:54 KEFD 062354Z 11006KT 10SM FEW070 28/11 A3007
KLBX - Angleton, Texas, USA
Distance from station: SSE 40mi, 65km
Updated: Fri, 07-Oct-2022 1:53pm CDT
Clear
Clear
 Wind from varies
Wind: varies 3 mph , 6 km/h
Temperature: 84°F , 29°C
Heat Index: 83°F , 28°C
Dew Point: 57°F , 14°C
Humidity: 40%
Barometer: 30.17 inHg , 1021.7 hPa
Clouds: Clear
Visibility: 10 miles , 16 km
2022/10/07 18:53 KLBX 071853Z AUTO VRB03KT 10SM CLR 29/14 A3017 RMK AO2 SLP215 T02940144
 
K66R - Columbus, Texas, USA
Distance from station: W 45mi, 72km
Updated: Fri, 07-Oct-2022 2:15pm CDT
Partly cloudy
Partly cloudy
 Wind from calm
Wind: Calm
Temperature: 81°F , 27°C
Heat Index: 81°F , 27°C
Dew Point: 59°F , 15°C
Humidity: 48%
Barometer: 30.20 inHg , 1022.7 hPa
Clouds: Partly cloudy
Visibility: 10 miles , 16 km
Cloud details: Partly cloudy 10000 ft
Partly cloudy 12000 ft
2022/10/07 19:15 K66R 071915Z AUTO 00000KT 10SM SCT100 SCT120 27/15 A3020 RMK AO2 T02650145
KBYY - Bay City, Texas, USA
Distance from station: S 47mi, 75km
Updated: Fri, 07-Oct-2022 2:15pm CDT
Clear
Clear
 Wind from calm
Wind: Calm
Temperature: 82°F , 28°C
Heat Index: 82°F , 28°C
Dew Point: 57°F , 14°C
Humidity: 42%
Barometer: 30.17 inHg , 1021.7 hPa
Clouds: Clear
Visibility: 10 miles , 16 km
2022/10/07 19:15 KBYY 071915Z AUTO 00000KT 10SM CLR 28/14 A3017 RMK AO2 T02860148